PILOTS ONLINE: 273    ATC ONLINE: 21

KBLH

Blythe Airport

Location

IATA BLH
City Blythe
Country  United States
Latitude 33° 37' 9" N
Longitude 114° 43' 1" W
Elevation 399 ft
Type Medium Airport

Map

Weather

METAR
2014/10/24 09:52
KBLH 240952Z AUTO 36006KT 10SM CLR 20/06 A2994 RMK AO2 SLP131 T02000056
TAF
2014/10/24 06:21
TAF KBLH 240520Z 2406/2506 VRB04KT P6SM SKC 
      TEMPO 2410/2414 34004KT 
     FM241800 16005KT P6SM SKC 
     FM250200 23005KT P6SM SKC

Runways

08/26 6543 ft / 150 ft
17/35 5800 ft / 100 ft

Outbound flights

Callsign Flying to Pilot ATD/STD ETA Aircraft

Inbound flights

Callsign Flying from Pilot ATD ETA Aircraft